LiveATC.Net - Listen to live air traffic control over the Internet!

Find LiveATC Audio Streams


Airport/ARTCC Code

Frequency Search
(e.g., 124.400, 128.75)
Site-wide search
 


Browse LiveATC Feeds
Top 50 LiveATC Feeds
LiveATC Feed Map
Bad Weather Areas

LiveATC FAQ
Offer LiveATC feed
Contact LiveATC.net
Press Inquiries

LiveATC on iPhone
LiveATC on Android

Windows Phone
Windows 8/10

LiveATC Mobile
(Mobile browser)

ATC Audio Archives
Interesting Recordings

LiveATC Forums

Home Page
About LiveATC.net
Make a Donation
Terms of Use
Privacy Policy

Canadian Air Freqs

AIRMETs/SIGMETs

FAA Airport Status
Nat'l Airspace Status
Arrival Demand Charts


Server Software By:
Icecast.org
Liquidsoap


Current Potentially Bad Weather Airports
(updated every 30 minutes - sorted alphabetically by ICAO code)



This page lists LiveATC.net airport areas that may be interesting to listen to because of challenging flying (weather) conditions. Challenging weather conditions include low ceilings, limited visibility, high or gusty winds, or thunderstorms.

Updated: Thu Feb 21 14:40:01 UTC 2019
Click on airport name to go to that airport area's feeds.

CYBW Tower (Inner) Springbank Airport (Calgary, CA-AB)
WX MAP UNAVAILABLENearest METAR:
CYBW 211428Z AUTO 00000KT 1/4SM R35/P6000FT/D FZFG CLR M23/M25 A3005 RMK SLP276
CYHU Tower #1 Saint-Hubert Airport (Montreal, CA-QC)
cyhuNearest METAR:
CYHU 211416Z AUTO 29003KT 2 1/4SM -SN OVC007 M06/M08 A2975 RMK SLP078
CYHZ Del/Gnd/Twr/App Halifax International Airport (Halifax, CA-NS)
WX MAP UNAVAILABLENearest METAR:
CYHZ 211414Z 13008KT 1SM R23/5000FT/U R14/5500VP6000FT/U -SN VV014 M10/M11 A3004 RMK SN8 PRESFR SLP185
CYMX Ground/Radio Montreal-Mirabel International Airport (Montreal, CA-QC)
cymxNearest METAR:
CYMX 211400Z 00000KT 2 1/2SM -SN OVC010 M07/M09 A2975 RMK SN3SC5 SLP082
CYOW Gnd/Twr/App Ottawa MacDonald Cartier International Airport (Ottawa, CA-ON)
cyowNearest METAR:
CYOW 211407Z 24006KT 7SM -SN SCT004 BKN038 M03/M04 A2976 RMK SF3SC4 SLP086
CYQB Ground/Tower Quebec Jean Lesage International Airport (Quebec, CA-QC)
cyqbNearest METAR:
CYQB 211400Z 07009KT 2SM -SN BR OVC023 M07/M09 A2975 RMK ST8 SLP082
CYQI/CZQM CTAF/FIC/Center Yarmouth Airport (Yarmouth, CA-NS)
WX MAP UNAVAILABLENearest METAR:
CYQI 211400Z 12013KT 3/4SM -SN OVC005 M04/M05 A2993 RMK SN4SF4 /S02/ PRESFR SLP138
CYQM App/Dep Greater Moncton International Airport (Moncton, CA-NB)
cyqmNearest METAR:
CYQM 211400Z 11007KT 3/4SM R06/P6000FT/N R29/6000FT/N -SN OVC015 M10/M12 A3001 RMK SC8 PRESFR SLP171
CYRQ CTAF Trois Rivieres Airport (Trois-Rivieres, CA-QC)
WX MAP UNAVAILABLENearest METAR:
CYRQ 211418Z AUTO 06004KT 6SM -SN OVC014 M07/M08 A2971 RMK SLP068
CYSB Gnd/Twr/Center Sudbury Airport (Sudbury, CA-ON)
WX MAP UNAVAILABLENearest METAR:
CYSB 211400Z 26009G17KT 12SM -SN FEW008 OVC010 M03/M05 A2969 RMK SF2SC6 SLP076
CYSC AWOS Sherbrooke Airport (Sherbrooke, CA-QC)
WX MAP UNAVAILABLENearest METAR:
CYSC 211414Z AUTO 31002KT 2SM -SN BKN015 OVC023 M04/M05 A2972 RMK SLP081
CYTS ATIS Timmins Airport (Timmins, CA-ON)
WX MAP UNAVAILABLENearest METAR:
CYTS 211409Z 27008KT 15SM -SN FEW006 SCT013 BKN030 BKN060 M08/M08 A2964 RMK SF1SC2SC2SC2 SLP058
CYUL Approach/Departure Pierre Elliott Trudeau International Airport (Montreal, CA-QC)
cyulNearest METAR:
CYUL 211400Z 30004KT 7SM -SN BKN007 OVC015 M07/M09 A2976 RMK SF7SC1 -SN INTMT SLP083
CYVO Gnd/RDO/Center Val-D'Or Airport (Val-D'Or, CA-QC)
WX MAP UNAVAILABLENearest METAR:
CYVO 211400Z 22007KT 3SM -SN BKN029 BKN090 M08/M09 A2958 RMK SC5AC2 SLP046
CYXE Terminal (App/Dep) John G. Diefenbaker International Airport (Saskatoon, CA-SK)
WX MAP UNAVAILABLENearest METAR:
CYXE 211400Z 30006KT 12SM -SN BKN020 OVC070 M17/M19 A3016 RMK SC6AC2 SLP264
CYZF Ground/Tower Yellowknife Airport (Yellowknife, CA-NT)
WX MAP UNAVAILABLENearest METAR:
CYZF 211400Z 16007KT 6SM -SN OVC024 M19/M21 A3007 RMK SC8 SLP212
EHAM App/Dep TMA East Schiphol International Airport (Amsterdam, Netherlands)
WX MAP UNAVAILABLENearest METAR:
EHAM 211425Z 26012KT 220V290 1900 DZ BR SCT005 BKN006 OVC007 09/08 Q1026 BECMG 3800 SCT006 BKN008 OVC011
EHGG Approach Groningen Airport Eelde (Groningen, Netherlands)
WX MAP UNAVAILABLENearest METAR:
EHGG 211425Z AUTO 26009KT 2600 BR BKN003 OVC005 09/08 Q1024 TEMPO 2500
EHVL CTAF/Range Control Vlieland Heliport (Vlieland, Netherlands)
WX MAP UNAVAILABLENearest METAR:
EHVL 211425Z AUTO 26014KT 3100 BR BKN002 BKN003 OVC005 08/08 Q1024 AMB
ENTO Tower/App Sandefjord Airport - Torp (Sandefjord, Norway)
WX MAP UNAVAILABLENearest METAR:
ENTO 211420Z 01012KT 9999 OVC007 00/M01 Q1020 TEMPO SCT007 OVC010
ENVA Gnd/Twr/App Vaernes Airport (Trondheim, Norway)
WX MAP UNAVAILABLENearest METAR:
ENVA 211420Z 08009KT 060V130 9999 -SHRA FEW020 BKN032 BKN053 00/M02 Q1019 TEMPO 2000 SNRA VV012 RMK WIND 670FT 13012KT
EPGD Tower/Approach Gdansk Lech Walesa Airport (Gdansk, Poland)
WX MAP UNAVAILABLENearest METAR:
EPGD 211400Z 09005KT 6000 -SN OVC002 00/M00 Q1018
ESGG Gnd/Twr/Control Landvetter Airport (Gothenburg, Sweden)
WX MAP UNAVAILABLENearest METAR:
ESGG 211420Z 31004KT 2500 BR VV004 05/04 Q1016 R03/29//95
KABE Gnd/Twr/App Lehigh Valley International Airport (Allentown, US-PA)
kabeNearest METAR:
KABE 211351Z 23009KT 2 1/2SM BR BKN004 02/M01 A2997 RMK AO2 SFC VIS 3 SLP152 T00171006
KABY Ground/Tower Southwest Georgia Regional Airport (Albany, US-GA)
kabyNearest METAR:
KABY 211353Z 18005KT 3SM BR OVC006 22/20 A3013 RMK AO2 RAE11 SLP203 P0000 T02170200 $
KACK Tower Nantucket Memorial Airport (Nantucket, US-MA)
kackNearest METAR:
KACK 211400Z 32015KT 1SM R24/3500V5500FT BR OVC002 03/03 A2979 RMK AO2 T00330028
KAHN Tower Athens/Ben Epps Airport (Athens, US-GA)
kahnNearest METAR:
KAHN 211351Z 02003KT 1/2SM FG VV003 06/06 A3016 RMK AO2 RAB23E43 SLP217 P0001 T00610056
ZBW Boston Center (ALB22) General Edward Lawrence Logan International Airport (Boston, US-MA)
kbosNearest METAR:
KBOS 211421Z 30008KT 1 1/2SM BR SCT005 BKN018 OVC047 01/M02 A2986 RMK AO2 SFC VIS 4 CIG 005 E T00061017
KASH Gnd/Twr/Misc #2 Boire Field Airport (Nashua, US-NH)
kashNearest METAR:
KASH 211356Z 30006KT 5SM BR OVC005 M02/M02 A2988 RMK AO2 SNB13E25 SLP130 P0000 T10221022 $
KATL Approach (Final) Hartsfield - Jackson Atlanta International Airport (Atlanta, US-GA)
katlNearest METAR:
KATL 211352Z 35003KT 1/8SM R09R/2800VP6000FT FG OVC002 09/08 A3014 RMK AO2 SFC VIS 1/2 RAB22E34 SLP208 P0000 T00890078
KAUG Del/CTAF Augusta State Airport (Augusta, US-ME)
kaugNearest METAR:
KAUG 211353Z AUTO 34005KT 3/4SM -SN BR VV016 M05/M06 A2985 RMK AO2 SLP116 P0000 T10501061
KAVL Gnd/Twr/App Asheville Regional Airport (Asheville, US-NC)
kavlNearest METAR:
KAVL 211354Z 35004KT 4SM -RA BR OVC009 09/08 A3012 RMK AO2 RAE18B29 SLP199 P0001 T00890078
KBDN CTAF Bend Municipal Airport (Bend, US-OR)
kbdnNearest METAR:
KBDN 211415Z AUTO 33009KT 3SM -SN OVC028 M05/M06 A2992 RMK AO2
KBDR Del/Gnd/Twr/App Igor I Sikorsky Memorial Airport (Bridgeport, US-CT)
kbdrNearest METAR:
KBDR 211352Z 23006KT 10SM OVC007 02/01 A2992 RMK AO2 SLP131 T00220011
Boston App/Dep (North Sat) #1 Laurence G Hanscom Field Airport (Bedford, US-MA)
kbedNearest METAR:
KBED 211423Z 30005KT 2 1/2SM BR OVC005 M01/M03 A2985 RMK AO2 T10111028
KBFM Ground/Tower Mobile Downtown Airport (Mobile, US-AL)
kbfmNearest METAR:
KBFM 211353Z 13003KT 1/4SM FG VV002 20/20 A3005 RMK AO2 SLP175 T02000200
KBGR Del/Gnd/Twr Bangor International Airport (Bangor, US-ME)
kbgrNearest METAR:
KBGR 211418Z 00000KT 2SM -SN BR SCT034 BKN048 OVC055 M04/M05 A2985 RMK AO2 P0000 T10391050
KBIL Approach (West) Billings Logan International Airport (Billings, US-MT)
kbilNearest METAR:
KBIL 211418Z 20004KT 1 1/2SM -SN BR BKN023 BKN040 OVC100 M11/M12 A2996 RMK AO2 SFC VIS 2 P0000 T11061117
KNEL/KWRI/ZNY Lakehurst Maxfield Field Joint Base McGuire (Lakehurst, US-NJ)
kwriNearest METAR:
KWRI 211356Z AUTO 29008KT 10SM OVC006 02/02 A2997 RMK AO2 CIG 005 RWY06 CIG 005 RWY18 SLP150 T00220021 $
KNEL/KWRI/ZNY Lakehurst Maxfield Field Joint Base McGuire (Lakehurst, US-NJ)
knelNearest METAR:
KNEL 211400Z 29014KT 5SM BR OVC006 03/02 A2996 RMK AO2 SLPNO T00280022 PNO $
KBLM/N12/3N6/KMJX Lakewood Airport (Lakewood, US-NJ)
kblmNearest METAR:
KBLM 211424Z AUTO 27010G17KT 10SM OVC005 04/03 A2998 RMK AO2
KBLM/N12/3N6/KMJX Lakewood Airport (Lakewood, US-NJ)
kmjxNearest METAR:
KMJX 211331Z AUTO 26008KT 10SM OVC007 03/03 A2999 RMK AO2 CIG 003V011
KBOI Twr/App Boise Air Terminal/Gowen Field (Boise, US-ID)
kboiNearest METAR:
KBOI 211416Z 15006KT 1 1/4SM -SN BR BKN018 OVC024 M02/M04 A2980 RMK AO2 P0001 T10221039
MA/NH/RI/CT Area CTAF Fitchburg Municipal Airport (Fitchburg, US-MA)
ksfzNearest METAR:
KSFZ 211356Z AUTO 33005KT 10SM OVC003 M01/M01 A2986 RMK AO2 SLP060 T10061011 FZRANO
MA/NH/RI/CT Area CTAF Fitchburg Municipal Airport (Fitchburg, US-MA)
kconNearest METAR:
KCON 211351Z AUTO 32004KT 3SM BR OVC004 M04/M04 A2988 RMK AO2 SLP123 T10391044
MA/NH/RI/CT Area CTAF Fitchburg Municipal Airport (Fitchburg, US-MA)
kpymNearest METAR:
KPYM 211416Z AUTO 31006KT 5SM BR OVC003 01/00 A2984 RMK AO2 T00060000
KBTR/KHZR/L38 Del/Gnd/Twr/App/CTAF Baton Rouge Metropolitan Airport - Ryan Field (Baton Rouge, US-LA)
khzrNearest METAR:
KHZR 211419Z AUTO 05005KT 7SM BR OVC003 12/12 A3000 RMK AO2
KBTR/KHZR/L38 Del/Gnd/Twr/App/CTAF Baton Rouge Metropolitan Airport - Ryan Field (Baton Rouge, US-LA)
kbtrNearest METAR:
KBTR 211353Z 04006KT 3/4SM BR OVC002 13/13 A2998 RMK AO2 RAB1257E09 SLP151 P0001 T01330133 RVRNO
KBVY Tower #1 Beverly Municipal Airport (Beverly, US-MA)
kbvyNearest METAR:
KBVY 211353Z 31006KT 1SM BR OVC003 M01/M03 A2986 RMK AO2 SLP108 I1000 T10111028
KCAE Gnd/Twr/App Columbia Metropolitan Airport (Columbia, US-SC)
kcaeNearest METAR:
KCAE 211356Z VRB03G14KT 1SM BR OVC004 08/08 A3017 RMK AO2 SFC VIS 3 SLP216 T00780078
KCCO CTAF Newnan Coweta County Airport (Atlanta, US-GA)
kccoNearest METAR:
KCCO 211415Z AUTO 00000KT 1/4SM FG OVC003 A3012 RMK AO2
KCTJ/KLGC CTAF West Georgia Regional Airport-O V Gray Field (Carrollton, US-GA)
klgcNearest METAR:
KLGC 211415Z AUTO 00000KT 1/2SM FG OVC003 13/13 A3012 RMK AO2 T01310128
KCTJ/KLGC CTAF West Georgia Regional Airport-O V Gray Field (Carrollton, US-GA)
kctjNearest METAR:
KCTJ 211415Z AUTO 03003KT 1/4SM FG OVC003 10/10 A3015 RMK AO2 T01000100
KFFC CTAF Atlanta Regional Airport-Falcon Field (Atlanta, US-GA)
kffcNearest METAR:
KFFC 211353Z AUTO 35004KT 1/4SM FG VV003 10/09 A3014 RMK AO2 SLP209 T01000089
KCEZ CTAF/ZDV Cortez Municipal Airport (Cortez, US-CO)
kcezNearest METAR:
KCEZ 211425Z AUTO 06003KT 1 1/2SM -SN BR OVC026 M04/M07 A2964 RMK AO2 P0000 T10441067
KCHO Ground/Tower Charlottesville-Albemarle Airport (Charlottesville, US-VA)
kchoNearest METAR:
KCHO 211419Z 00000KT 1 1/2SM BR SCT001 03/01 A3003 RMK AO2 T00280011
KCLT Del/Gnd/Twr Charlotte/Douglas International Airport (Charlotte, US-NC)
kcltNearest METAR:
KCLT 211352Z 28007KT 1SM R18C/P6000FT RA BR OVC002 06/05 A3015 RMK AO2 SFC VIS 1 1/4 RAB08 TSB02E42 PRESRR SLP213 TS MOV NE P0006 T00610050
KCQF CTAF/Misc H L Sonny Callahan Airport (Fairhope, US-AL)
kcqfNearest METAR:
KCQF 211415Z AUTO 00000KT 1/2SM FG OVC002 21/21 A3005 RMK AO2
KCRE Ground/Tower Grand Strand Airport (North Myrtle Beach, US-SC)
kcreNearest METAR:
KCRE 211413Z 27003KT 1/4SM FG VV002 12/12 A3015 RMK AO1 T01170117
KCUB CTAF Jim Hamilton L B Owens Airport (Columbia, US-SC)
kcubNearest METAR:
KCUB 211407Z AUTO VRB03KT 4SM BR OVC003 08/07 A3019 RMK AO2 CIG 003V006 T00830067
KDAL ATIS Dallas Love Field Airport (Dallas, US-TX)
kdalNearest METAR:
KDAL 211424Z 15007KT 10SM -TSRA FEW065CB OVC095 08/04 A3008 RMK AO2 TSE21B24 PRESRR OCNL LTGIC TS S MOV NE P0000 T00830039
KDFW Reg App Feeder (East) Dallas/Fort Worth International Airport (Dallas, US-TX)
kdfwNearest METAR:
KDFW 211353Z 12006KT 10SM BKN085 BKN250 07/03 A3002 RMK AO2 LTG DSNT E SLP164 SHRA DSNT SE-S T00720028
KDYL CTAF #2 Doylestown Airport (Doylestown, US-PA)
kdylNearest METAR:
KDYL 211354Z AUTO 24005KT 6SM BR OVC005 01/M01 A2997 RMK AO2 SLP157 T00061006
KEAU Tower Chippewa Valley Regional Airport (Eau Claire, US-WI)
keauNearest METAR:
KEAU 211421Z 23008KT 1 3/4SM -SN BR OVC013 M12/M14 A3004 RMK AO2 P0000 T11171139
KEWR NY App (MUGZY Sector) #1 Newark Liberty International Airport (Newark, US-NJ)
kewrNearest METAR:
KEWR 211419Z 25010KT 2SM BR OVC005 02/01 A2996 RMK AO2 SFC VIS 6 CIG 003V007 T00220011 $
KFLG Ground/Tower Flagstaff Pulliam Airport (Flagstaff, US-AZ)
kflgNearest METAR:
KFLG 211416Z 20008KT 1/4SM +SN FZFG VV005 M07/M08 A2949 RMK AO2 P0002 T10671078
KFSD Twr/App/Dep/ZMP Joe Foss Field Airport (Sioux Falls, US-SD)
kfsdNearest METAR:
KFSD 211356Z 23003KT 6SM -SN BR CLR M19/M20 A3008 RMK AO2 SLP222 ICB48 PRESENT WX IC P0000 T11891200
KFTY Ground/Tower Fulton County Airport-Brown Field (Atlanta, US-GA)
kftyNearest METAR:
KFTY 211353Z 08003KT 1 1/4SM BR OVC002 08/08 A3012 RMK AO2 RAE02 SLP202 P0000 T00780078
KGFL CTAF/App Floyd Bennett Memorial Airport (Glens Falls, US-NY)
kgflNearest METAR:
KGFL 211405Z AUTO 18005KT 1 3/4SM -SN BR OVC004 M01/M02 A2986 RMK AO2 P0000 T10061022
KGGG Gnd/Twr East Texas Regional Airport (Longview, US-TX)
kgggNearest METAR:
KGGG 211353Z 06006KT 10SM -RA FEW070 OVC100 06/06 A3003 RMK AO2 LTG DSNT N AND W RAB03 TSB37E48 SLP171 P0002 T00610061
KGPT App/Dep Gulfport-Biloxi International Airport (Gulfport, US-MS)
kgptNearest METAR:
KGPT 211353Z 00000KT 1 3/4SM BR OVC002 20/19 A3002 RMK AO2 RAB1257E21 SLP165 P0006 T02000194
KGSB Gnd/Twr/App/Misc Seymour Johnson Air Force Base (Goldsboro, US-NC)
kgsbNearest METAR:
KGSB 211416Z 28006KT 3/4SM BR VV002 09/09 A3012 RMK AO2A SLP203 $
KHDC De/Gnd/Twr/App/ZHU Hammond Northshore Regional Airport (Hammond, US-LA)
khdcNearest METAR:
KHDC 211415Z AUTO 04003KT 1 1/4SM BR OVC002 13/13 A3001 RMK AO2
KHEF Del/Gnd/Twr Manassas Regional Airport/Harry P. Davis Field (Manassas, US-VA)
khefNearest METAR:
KHEF 211429Z 23004KT 1 1/4SM OVC003 03/01 A3007 RMK AO2 PNO $
KHND Ground/Tower Henderson Executive Airport (Las Vegas, US-NV)
khndNearest METAR:
KHND 211429Z 00000KT 4SM UP BR OVC005 00/M01 A2957 RMK AO2 UPB1358 CIG 003V008 P0000 $
KHOU Gnd/Twr/App William P Hobby Airport (Houston, US-TX)
khouNearest METAR:
KHOU 211353Z 05008KT 4SM -RA BR OVC006 11/10 A2992 RMK AO2 LTG DSNT NE SLP137 P0019 T01110100
KHQZ Tower Mesquite Metro Airport (Mesquite, US-TX)
khqzNearest METAR:
KHQZ 211350Z 17004KT 10SM -TSRA BKN085 07/04 A3008
KHRL Tower/CTAF Valley International Airport (Harlingen, US-TX)
khrlNearest METAR:
KHRL 211421Z 31006KT 5SM BR OVC009 14/13 A2987 RMK AO2 T01440128
KHSV Gnd/Twr/App/Dep Huntsville International Airport-Carl T Jones Field (Huntsville, US-AL)
khsvNearest METAR:
KHSV 211353Z 05009KT 7SM OVC007 08/07 A3012 RMK AO2 SLP199 T00780067 $
KHUL/KPQI/ZBW01/15 Houlton International Airport (Houlton, US-ME)
khulNearest METAR:
KHUL 211353Z AUTO VRB05KT 1SM -SN BR OVC025 M09/M11 A2987 RMK AO2 SLP125 P0001 T10891111
KHUL/KPQI/ZBW01/15 Houlton International Airport (Houlton, US-ME)
kpqiNearest METAR:
KPQI 211421Z AUTO 15007KT 4SM -SN FEW021 BKN035 OVC044 M09/M12 A2984 RMK AO2 P0000 FZRANO
KHVN Ground/Tower Tweed-New Haven Airport (New Haven, US-CT)
khvnNearest METAR:
KHVN 211400Z 31010KT 10SM OVC009 03/01 A2990
KHWV CTAF Brookhaven Airport (Shirley, US-NY)
khwvNearest METAR:
KHWV 211418Z AUTO 28008KT 3SM BR OVC002 02/02 A2993 RMK AO2 T00220017
KHXD Ground/Tower Hilton Head Airport (Hilton Head Island, US-SC)
khxdNearest METAR:
KHXD 211350Z 00000KT 1/4SM FG VV001 14/14 A3018
KHYA/KFMH Twr/Cape App Cape Cod Coast Guard Air Station (Falmouth, US-MA)
khyaNearest METAR:
KHYA 211356Z 34008G16KT 1SM BR OVC002 03/02 A2979 RMK AO2 RAE47 SLP089 P0000 T00280017
KHYA/KFMH Twr/Cape App Cape Cod Coast Guard Air Station (Falmouth, US-MA)
kfmhNearest METAR:
KFMH 211415Z AUTO 33010KT 9SM OVC004 01/02 A2982 RMK AO2
KIAD Del/Gnd Washington Dulles International Airport (Washington, US-DC)
kiadNearest METAR:
KIAD 211352Z 00000KT 1/4SM R01R/5500VP6000FT BR BKN003 OVC007 00/M01 A3005 RMK AO2 SFC VIS 2 SLP178 T00001006
KJYO CTAF/Del/SFRA Leesburg Executive Airport (Leesburg, US-VA)
kjyoNearest METAR:
KJYO 211415Z AUTO 00000KT M1/4SM OVC002 00/00 A3006 RMK AO2
KIAH Tower George Bush Intercontinental/Houston Airport (Houston, US-TX)
kiahNearest METAR:
KIAH 211402Z 06009KT 2 1/2SM -RA BR BKN008 OVC022 11/10 A2994 RMK AO2 LTG DSNT E CB DSNT E MOV NE P0000 T01060100
KILM Gnd/Twr/App #2 Wilmington International Airport (Wilmington, US-NC)
kilmNearest METAR:
KILM 211353Z 18003KT 1/4SM R35/1400V1800FT FG VV002 13/13 A3013 RMK AO2 SLP202 T01280128
KIPJ CTAF/Del Lincolnton-Lincoln County Regional Airport (Lincolnton, US-NC)
kipjNearest METAR:
KIPJ 211435Z AUTO 00000KT 7SM -RA OVC004 07/07 A3012 RMK AO2 P0001 T00650065
KISP (NY Approach) Long Island Mac Arthur Airport (Islip, US-NY)
kispNearest METAR:
KISP 211356Z 26009KT 1 1/2SM BR OVC002 02/02 A2992 RMK AO2 SFC VIS 3 SLP131 T00220022
KJCA CTAF Jackson County Airport (Jefferson, US-GA)
kjcaNearest METAR:
KJCA 211415Z AUTO 00000KT 5SM OVC005 07/07 A3016 RMK AO2 PWINO T00710067
KJQF Ground/Tower Concord Regional Airport (Concord, US-NC)
kjqfNearest METAR:
KJQF 211352Z 00000KT 1 1/2SM RA FG OVC002 06/06 A3017
KVGT Tower #2 North Las Vegas Airport (Las Vegas, US-NV)
kvgtNearest METAR:
KVGT 211353Z 00000KT 1 1/2SM -SN BR OVC012 01/M01 A2956 RMK AO2 TWR VIS 6 SLP034 P0001 T00061006
KLBX CTAF Texas Gulf Coast Regional Airport (Angleton/Lake Jackson, US-TX)
klbxNearest METAR:
KLBX 211353Z AUTO 04007KT 5SM BR OVC005 12/12 A2991 RMK AO2 RAB13E23 SLP127 P0000 T01170117
KLHZ CTAF Triangle North Executive Airport (Louisburg, US-NC)
klhzNearest METAR:
KLHZ 211420Z AUTO 22006KT 2SM BR OVC002 05/05 A3015 RMK AO2
KLNS ATIS Lancaster Airport (Lancaster, US-PA)
klnsNearest METAR:
KLNS 211401Z 27006KT 2 1/2SM BR SCT006 BKN013 02/00 A3001 RMK AO2 T00170000
KLWM Ground/Tower Lawrence Municipal Airport (Lawrence, US-MA)
klwmNearest METAR:
KLWM 211416Z 31005KT 5SM BR OVC005 M03/M04 A2988 RMK AO2 T10281039
KLXV CTAF Lake County Airport (Leadville, US-CO)
klxvNearest METAR:
KLXV 211353Z AUTO 07003KT 1 1/2SM -SN BR OVC020 M17/M18 A2954 RMK AO2 SLP062 P0000 T11671183
KMAN/KEUL CTAF Caldwell Industrial Airport (Nampa, US-ID)
kmanNearest METAR:
KMAN 211415Z AUTO 25004KT 4SM BR OVC007 M03/M03 A2982 RMK A01
KMAN/KEUL CTAF Caldwell Industrial Airport (Nampa, US-ID)
keulNearest METAR:
KEUL 211409Z AUTO 28006KT 9SM -SN OVC009 M03/M04 A2983 RMK AO2 CIG 009V013 P0000 FZRANO
KMDT App/Dep (East/West) Harrisburg International Airport (Harrisburg, US-PA)
kmdtNearest METAR:
KMDT 211400Z 32006KT 1 3/4SM BR OVC004 01/M01 A3001 RMK AO2 TWR VIS 3 T00061006
KCXY Ground Capital City Airport (Harrisburg, US-PA)
kcxyNearest METAR:
KCXY 211356Z 29006KT 1 1/2SM BR OVC003 01/M01 A3002 RMK AO2 SLP171 T00061006
KMFR App/Dep Rogue Valley International - Medford Airport (Medford, US-OR)
kmfrNearest METAR:
KMFR 211353Z 00000KT 1/2SM R14/P6000FT FZFG VV003 M02/M03 A2993 RMK AO2 SLP144 I1000 T10221028
KMHT Del/Gnd/Twr Manchester Airport (Manchester, US-NH)
kmhtNearest METAR:
KMHT 211403Z 32005KT 4SM BR OVC005 M03/M04 A2986 RMK AO2 T10281039
KMOR CTAF Moore-Murrell Airport (Morristown, US-TN)
kmorNearest METAR:
KMOR 211415Z AUTO 27004KT 1/4SM FG OVC003 10/10 A3014 RMK A01
KMQS/KPTW CTAF Chester County G O Carlson Airport (Coatesville, US-PA)
kmqsNearest METAR:
KMQS 211415Z AUTO 00000KT -UP OVC008 01/01 A3001 RMK AO2
Potomac App/Dep (BUFFR) Eastern WV Regional Airport/Shepherd Field (Martinsburg, US-WV)
kmrbNearest METAR:
KMRB 211353Z 00000KT M1/4SM FZFG VV001 M01/M01 A3003 RMK AO2 SLP176 T10061006
KMSY Gnd/Twr/App Louis Armstrong New Orleans International Airport (New Orleans, US-LA)
kmsyNearest METAR:
KMSY 211353Z 08004KT 1 1/4SM BR OVC002 17/17 A2999 RMK AO2 SLP157 T01670167
KMVY Del/Gnd/Twr Martha's Vineyard Airport (Vineyard Haven, US-MA)
kmvyNearest METAR:
KMVY 211406Z 33011KT 3SM BR OVC003 02/02 A2983 RMK AO2 T00170017
KMYR Gnd/Twr/App Myrtle Beach International Airport (Myrtle Beach, US-SC)
kmyrNearest METAR:
KMYR 211356Z 29003KT 1/4SM FG OVC003 12/12 A3017 RMK AO2 SLP215 T01220117
KNEW Del/Gnd Lakefront Airport (New Orleans, US-LA)
knewNearest METAR:
KNEW 211353Z 05008KT 1/4SM -RA FG VV003 17/16 A3000 RMK AO2 RAB03 SLP152 P0004 T01670161
KNTU Gnd/Twr/App/Radar Oceana Naval Air Station (Apollo Soucek Field) (Virginia Beach, US-VA)
kntuNearest METAR:
KNTU 211356Z 25007KT 9SM OVC004 08/07 A3008 RMK AO2 SLP188 T00780072
KOAJ Gnd/Twr Albert J Ellis Airport (Jacksonville, US-NC)
koajNearest METAR:
KOAJ 211356Z 22004KT 1/2SM FG OVC002 12/12 A3012 RMK AO2 SLP206 T01170117
KOGB CTAF Orangeburg Municipal Airport (Orangeburg, US-SC)
kogbNearest METAR:
KOGB 211409Z AUTO 00000KT 1/2SM FG OVC002 09/08 A3018 RMK AO2 T00940083
KOMA Del/Gnd/Twr Eppley Airfield (Omaha, US-NE)
komaNearest METAR:
KOMA 211420Z 35005KT M1/4SM R14R/0300V0800FT FZFG SCT000 M14/M17 A3018 RMK AO2 VIS SW-W 4 FZFG SCT000 T11441167
KORF Gnd/Twr/App/Radar Norfolk International Airport (Norfolk, US-VA)
korfNearest METAR:
KORF 211351Z 23009KT 10SM OVC009 08/07 A3007 RMK AO2 SLP183 T00780067
FSS (Central MA) Worcester Regional Airport (Worcester, US-MA)
korhNearest METAR:
KORH 211420Z 24003KT 10SM OVC005 M02/M02 A2982 RMK AO2 T10221022
KOWD Ground/Tower Norwood Municipal Airport (Norwood, US-MA)
kowdNearest METAR:
KOWD 211400Z 31005KT 10SM OVC006 01/M02 A2987 RMK AO2 T00061017
KOXC Ground/Tower Waterbury-Oxford Airport (Oxford, US-CT)
koxcNearest METAR:
KOXC 211351Z 25004KT 3SM BR OVC003 01/00 A2988 RMK AO2 SLP138 P0002 T00060000
KPAE Gnd/Twr/App Snohomish County Airport (Paine Field) (Everett, US-WA)
kpaeNearest METAR:
KPAE 211412Z AUTO 00000KT 1/4SM R16R/1600V3500FT FZFG VV002 M02/M03 A3009 RMK AO2 T10221028
KPDK Tower Dekalb-Peachtree Airport (Atlanta, US-GA)
kpdkNearest METAR:
KPDK 211353Z 04004KT 1/4SM FG VV001 07/07 A3014 RMK AO2 RAB05E17 SLP216 P0000 T00670067
KPDT Gnd/Twr/App Eastern Oregon Regional Airport at Pendleton (Pendleton, US-OR)
kpdtNearest METAR:
KPDT 211418Z 30005KT 2 1/2SM -SN BR SCT004 OVC027 M03/M04 A3000 RMK AO2 SNB1357 P0000 T10331044
KPGV CTAF Pitt-Greenville Airport (Greenville, US-NC)
kpgvNearest METAR:
KPGV 211440Z AUTO 27004KT 1 1/4SM BR OVC004 09/09 A3013 RMK AO2
KPNS App/Dep 118.6 Pensacola International Airport (Pensacola, US-FL)
kpnsNearest METAR:
KPNS 211353Z 08003KT 1/4SM R17/1400V1600FT FG VV002 21/20 A3005 RMK AO2 SLP177 T02060200
KPNS/KNPA App 120.65 Pensacola Naval Air Station (Forrest Sherman Field) (Pensacola, US-FL)
knpaNearest METAR:
KNPA 211356Z 10005KT M1/4SM FG VV002 21/21 A3004 RMK AO2 SLP175 T02060206
KNDZ/KNSE Twr/App Whiting Field Naval Air Station North (Milton, US-FL)
kndzNearest METAR:
KNDZ 211356Z 00000KT 1/4SM FG VV002 21/21 A3006 RMK AO2 SLP164 T02110211 $
KNDZ/KNSE Twr/App Whiting Field Naval Air Station North (Milton, US-FL)
knseNearest METAR:
KNSE 211356Z 00000KT 1/4SM FG VV002 21/21 A3006 RMK AO2 SLP164 T02110211 $
KPRC Practice Area Ernest A. Love Field Airport (Prescott, US-AZ)
kprcNearest METAR:
KPRC 211426Z 14012KT 1/4SM SN FZFG VV006 M03/M03 A2953 RMK AO2 P0005 T10281033
KPSM Gnd/Twr/App/GCA Portsmouth International Airport at Pease (Portsmouth, US-NH)
kpsmNearest METAR:
KPSM 211356Z 33007KT 2SM BR OVC004 M03/M04 A2985 RMK AO2A SLP112 T10321040
KPVD Clearance Delivery Theodore Francis Green State Airport (Providence, US-RI)
kpvdNearest METAR:
KPVD 211351Z 32008KT 10SM OVC006 00/M01 A2988 RMK AO2 SLP117 T00001011
KPWM Gnd/Twr/App Portland International Jetport (Portland, US-ME)
kpwmNearest METAR:
KPWM 211351Z VRB03KT 2SM -FZDZ BR OVC007 M04/M05 A2987 RMK AO2 SLP117 P0000 I1000 T10391050
KPXE CTAF Perry-Houston County Airport (Perry, US-GA)
kpxeNearest METAR:
KPXE 211415Z AUTO 03005KT 1/4SM FG OVC002 14/14 A3015 RMK AO2 T01380137
Regional Approach (South/RBD) Mid-Way Regional Airport (Midlothian/Waxahachie, US-TX)
krbdNearest METAR:
KRBD 211421Z 12005KT 10SM -TSRA OVC080 07/03 A3005 RMK AO2 RAB01 TSB21 PRESRR P0000 T00670033
KRDG Gnd/Twr/App Reading Regional Airport/Carl A Spaatz Field (Reading, US-PA)
krdgNearest METAR:
KRDG 211401Z 00000KT 2 1/2SM BR CLR 02/01 A2999 RMK AO2 SFC VIS 10 T00170011
KRDU Approach Raleigh-Durham International Airport (Raleigh/Durham, US-NC)
krduNearest METAR:
KRDU 211351Z 24003KT 1/4SM FG OVC002 04/04 A3013 RMK AO2 SFC VIS 1/2 SLP206 T00440044 RVRNO
KRNH CTAF/Clearance New Richmond Regional Airport (New Richmond, US-WI)
krnhNearest METAR:
KRNH 211415Z AUTO 22007KT 2 1/2SM -SN OVC009 M11/M14 A3004 RMK AO2 T11121137
KRNO Del/Gnd/Twr/App/ZOA Reno/Tahoe International Airport (Reno, US-NV)
krnoNearest METAR:
KRNO 211408Z 03003KT 1SM R16R/5000VP6000FT -SN BKN011 OVC024 M04/M07 A2964 RMK AO2 P0000 T10391072
KSFF Ground/Tower Felts Field Airport (Spokane, US-WA)
ksffNearest METAR:
KSFF 211426Z 00000KT 1/2SM FZFG VV002 M11/M12 A3002 RMK AO2 T11061122
KSLE Gnd/Twr McNary Field Airport (Salem, US-OR)
WX MAP UNAVAILABLENearest METAR:
KSLE 211356Z AUTO 04005KT 6SM BR OVC005 01/M01 A3006 RMK AO2 SLP180 T00111006
KTAN CTAF Taunton Municipal Airport (Taunton, US-MA)
ktanNearest METAR:
KTAN 211352Z AUTO 31003KT 5SM BR OVC004 01/00 A2985 RMK AO2 SLP108 T00110000
KTLH Del/Gnd/Twr/App Tallahassee Regional Airport (Tallahassee, US-FL)
ktlhNearest METAR:
KTLH 211353Z 18004KT 10SM OVC005 21/21 A3012 RMK AO2 SLP199 T02110211
KTRI Gnd/Twr/App Tri-Cities Regional Airport (Bristol/Johnson/Kingsport, US-TN)
ktriNearest METAR:
KTRI 211353Z 00000KT 1 1/2SM BR OVC004 09/09 A3013 RMK AO2 SLP193 T00890089
KTRK UNICOM Truckee-Tahoe Airport (Truckee, US-CA)
ktrkNearest METAR:
KTRK 211335Z AUTO 00000KT 10SM -SN OVC003 M13/M15 A2958 RMK AO2
KTTA CTAF Raleigh Executive Jetport at Sanford-Lee County Airport (Sanford, US-NC)
kttaNearest METAR:
KTTA 211425Z AUTO 00000KT 1 1/2SM BR OVC004 06/06 A3015 RMK AO2 T00570057
KTTN Ground/Tower Trenton Mercer Airport (Trenton, US-NJ)
kttnNearest METAR:
KTTN 211353Z 27009KT 6SM BR OVC006 03/01 A2998 RMK AO2 SLP148 T00330011
KTVC Gnd/Twr/ZMP Cherry Capital Airport (Traverse City, US-MI)
ktvcNearest METAR:
KTVC 211353Z 24009G19KT 210V270 5SM -SN OVC028 M01/M06 A2992 RMK AO2 PK WND 26026/1315 SNB33 SLP140 P0000 T10111061
KTYS Del/Gnd/Twr/App McGhee Tyson Airport (Knoxville, US-TN)
ktysNearest METAR:
KTYS 211422Z 29003KT 1SM -RA BR BKN003 OVC005 10/09 A3015 RMK AO2 RAB10 P0000 T01000094 RVRNO
KUOX CTAF/ZME University-Oxford Airport (Oxford, US-MS)
kuoxNearest METAR:
KUOX 211415Z AUTO 05012G18KT 2 1/2SM BR OVC003 04/04 A3015 RMK AO2
KUUU CTAF/Del Newport State Airport (Newport, US-RI)
kuuuNearest METAR:
KUUU 211353Z AUTO 33010KT 5SM BR OVC003 00/00 A2985 RMK AO2 SLP110 T00000000
KVLD Gnd/Twr/App/Dep Valdosta Regional Airport (Valdosta, US-GA)
kvldNearest METAR:
KVLD 211419Z 18008KT 5SM BR OVC002 20/20 A3015 RMK AO2 T02000200
OPLA/OPLH Gnd/Twr/App Allama Iqbal International Airport (Lahore, Pakistan)
WX MAP UNAVAILABLENearest METAR:
OPLA 211355Z 33007KT 4000 FU SCT040 BKN100 16/12 Q1017 TEMPO 34015G30KT 2000 -TSRA FEW030CB RMK QFE991 RMK A30.02
PAMR Ground/Tower Merrill Field Airport (Anchorage, US-AK)
pamrNearest METAR:
PAMR 211353Z 35009KT 9SM -SN FEW008 BKN032 OVC070 M06/M11 A2974 RMK AO2 SLP072 P0000 T10611106
PANC Del/Gnd/Twr/App Ted Stevens Anchorage International Airport (Anchorage, US-AK)
pancNearest METAR:
PANC 211353Z 36013KT 1 1/2SM OVC065 M05/M11 A2974 RMK AO2 SFC VIS 10 SLP073 T10501106
Matsu CTAF Palmer Municipal Airport (Palmer, US-AK)
pabvNearest METAR:
PABV 211356Z AUTO 29004KT 10SM -SN SCT041 OVC050 M06/M08 A2975 RMK AO2 SLP084 P0000 T10611083 FZRANO
USCC Twr/App/Control Chelyabinsk Airport (Chelyabinsk, Russia)
WX MAP UNAVAILABLENearest METAR:
USCC 211400Z 20006MPS 9999 SCT040 M03/M11 Q1010 R27/000060 TEMPO 20010MPS 1200 SN BLSN VV003 RMK QFE738
KMDQ CTAF Huntsville Executive Airport / Tom Sharp Jr Field (Huntsville, US-AL)
kmdqNearest METAR:
KMDQ 211415Z AUTO 03007G16KT 10SM OVC009 07/06 A3014 RMK A02 T00740060
KHUA Tower Redstone Army Airfield (Huntsville, US-AL)
khuaNearest METAR:
KHUA 211358Z 05006G15KT 9SM OVC008 08/07 A3011 RMK AO2A SLP198 T00760069